createdAt,value
2018-04-22T00:00:55.802Z,101097.35
2018-04-22T00:03:28.421Z,101093.89
2018-04-22T00:06:01.028Z,101093.47
2018-04-22T00:08:33.899Z,101091.05
2018-04-22T00:11:06.560Z,101093.25
2018-04-22T00:13:39.221Z,101081.47
2018-04-22T00:16:12.084Z,101077.31
2018-04-22T00:18:44.728Z,101080.78
2018-04-22T00:21:17.283Z,101072.79
2018-04-22T00:23:49.849Z,101059.23
2018-04-22T00:26:22.369Z,101063.00
2018-04-22T00:28:54.954Z,101056.17
2018-04-22T00:31:27.497Z,101051.53
2018-04-22T00:34:00.047Z,101059.20
2018-04-22T00:36:32.637Z,101047.31
2018-04-22T00:39:05.191Z,101051.13
2018-04-22T00:41:37.774Z,101047.74
2018-04-22T00:44:10.318Z,101048.16
2018-04-22T00:46:42.899Z,101042.67
2018-04-22T00:49:15.413Z,101037.11
2018-04-22T00:51:48.900Z,101033.30
2018-04-22T00:54:22.352Z,101032.14
2018-04-22T00:56:54.925Z,101029.66
2018-04-22T00:59:27.463Z,101033.50
2018-04-22T01:02:00.009Z,101028.03
2018-04-22T01:04:32.583Z,101025.05
2018-04-22T01:07:05.183Z,101025.02
2018-04-22T01:09:37.708Z,101023.83
2018-04-22T01:12:10.268Z,101019.66
2018-04-22T01:14:42.820Z,101023.92
2018-04-22T01:17:15.373Z,101017.69
2018-04-22T01:19:47.910Z,101013.09
2018-04-22T01:22:20.475Z,101013.09
2018-04-22T01:24:53.028Z,101012.30
2018-04-22T01:27:25.574Z,101018.30
2018-04-22T01:29:58.122Z,101014.97
2018-04-22T01:32:30.672Z,101010.79
2018-04-22T01:35:03.352Z,101009.95
2018-04-22T01:37:35.923Z,101004.02
2018-04-22T01:40:08.454Z,101006.26
2018-04-22T01:42:41.009Z,101004.60
2018-04-22T01:45:13.550Z,101000.41
2018-04-22T01:47:46.112Z,101005.05
2018-04-22T01:50:18.648Z,100999.89
2018-04-22T01:52:51.237Z,101001.95
2018-04-22T01:55:23.788Z,100997.28
2018-04-22T01:57:56.315Z,100994.31
2018-04-22T02:00:28.832Z,100992.66
2018-04-22T02:03:01.381Z,100993.55
2018-04-22T02:05:33.926Z,100994.45
2018-04-22T02:08:06.476Z,100997.84
2018-04-22T02:10:38.992Z,100992.36
2018-04-22T02:13:11.542Z,100991.56
2018-04-22T02:15:44.077Z,100992.01
2018-04-22T02:18:16.661Z,100989.08
2018-04-22T02:20:49.188Z,100989.52
2018-04-22T02:23:21.769Z,100984.45
2018-04-22T02:25:54.320Z,100980.21
2018-04-22T02:28:26.873Z,100985.33
2018-04-22T02:30:59.406Z,100984.08
2018-04-22T02:33:31.948Z,100983.27
2018-04-22T02:36:05.501Z,100980.30
2018-04-22T02:38:38.056Z,100983.27
2018-04-22T02:41:10.574Z,100978.61
2018-04-22T02:43:43.166Z,100976.13
2018-04-22T02:46:15.695Z,100974.45
2018-04-22T02:48:48.269Z,100974.42
2018-04-22T02:51:20.805Z,100971.88
2018-04-22T02:53:53.387Z,100969.06
2018-04-22T02:56:25.922Z,100964.92
2018-04-22T02:58:58.453Z,100960.68
2018-04-22T03:01:30.981Z,100963.22
2018-04-22T03:04:03.649Z,100964.92
2018-04-22T03:06:36.185Z,100959.41
2018-04-22T03:09:08.761Z,100964.47
2018-04-22T03:11:41.277Z,100949.67
2018-04-22T03:14:14.779Z,100947.97
2018-04-22T03:16:47.328Z,100942.86
2018-04-22T03:19:19.876Z,100934.36
2018-04-22T03:21:52.405Z,100933.08
2018-04-22T03:24:24.986Z,100928.80
2018-04-22T03:26:57.808Z,100932.17
2018-04-22T03:29:30.358Z,100919.87
2018-04-22T03:32:03.005Z,100916.94
2018-04-22T03:34:35.549Z,100914.45
2018-04-22T03:37:08.074Z,100919.11
2018-04-22T03:42:19.388Z,100910.98
2018-04-22T03:44:51.936Z,100914.38
2018-04-22T03:47:24.453Z,100907.20
2018-04-22T03:49:57.022Z,100905.50
2018-04-22T03:52:29.531Z,100909.72
2018-04-22T03:55:02.070Z,100907.60
2018-04-22T03:57:34.652Z,100908.47
2018-04-22T04:00:07.209Z,100908.44
2018-04-22T04:02:39.773Z,100912.25
2018-04-22T04:05:12.330Z,100909.71
2018-04-22T04:07:44.879Z,100912.28
2018-04-22T04:10:17.404Z,100909.75
2018-04-22T04:12:49.963Z,100910.17
2018-04-22T04:15:22.484Z,100897.46
2018-04-22T04:21:27.666Z,100889.00
2018-04-22T04:27:37.833Z,100887.27
2018-04-22T04:30:10.355Z,100888.92
2018-04-22T04:32:42.849Z,100891.42
2018-04-22T04:35:15.355Z,100901.16
2018-04-22T04:37:47.851Z,100897.72
2018-04-22T04:40:21.289Z,100893.91
2018-04-22T04:42:53.776Z,100883.77
2018-04-22T04:45:26.280Z,100889.25
2018-04-22T04:47:58.802Z,100891.31
2018-04-22T04:50:31.314Z,100891.66
2018-04-22T04:53:03.799Z,100891.08
2018-04-22T04:55:36.364Z,100889.16
2018-04-22T04:58:08.852Z,100886.06
2018-04-22T05:00:41.364Z,100885.07
2018-04-22T05:03:13.847Z,100883.86
2018-04-22T05:05:46.355Z,100881.14
2018-04-22T05:08:20.039Z,100902.00
2018-04-22T05:10:52.560Z,100893.86
2018-04-22T05:13:25.055Z,100892.95
2018-04-22T05:15:57.563Z,100885.59
2018-04-22T05:18:30.068Z,100889.45
2018-04-22T05:21:02.667Z,100890.89
2018-04-22T05:23:35.211Z,100887.59
2018-04-22T05:26:07.727Z,100885.29
2018-04-22T05:28:40.226Z,100884.00
2018-04-22T05:31:12.747Z,100883.38
2018-04-22T05:33:45.254Z,100887.65
2018-04-22T05:36:17.761Z,100883.69
2018-04-22T05:38:50.739Z,100884.65
2018-04-22T05:41:23.247Z,100878.59
2018-04-22T05:43:55.908Z,100882.72
2018-04-22T05:46:28.422Z,100872.06
2018-04-22T05:49:00.920Z,100874.20
2018-04-22T05:51:33.434Z,100875.49
2018-04-22T05:54:05.923Z,100879.00
2018-04-22T05:56:38.459Z,100870.05
2018-04-22T05:59:10.957Z,100871.16
2018-04-22T06:01:43.474Z,100866.17
2018-04-22T06:04:16.086Z,100867.26
2018-04-22T06:06:49.431Z,100860.34
2018-04-22T06:09:22.238Z,100852.61
2018-04-22T06:11:54.748Z,100856.00
2018-04-22T06:14:27.238Z,100857.37
2018-04-22T06:16:59.751Z,100842.98
2018-04-22T06:19:32.243Z,100845.97
2018-04-22T06:22:04.801Z,100847.73
2018-04-22T06:24:37.290Z,100846.80
2018-04-22T06:27:09.867Z,100835.66
2018-04-22T06:29:42.360Z,100829.01
2018-04-22T06:32:14.871Z,100826.70
2018-04-22T06:34:47.374Z,100826.86
2018-04-22T06:37:20.064Z,100815.85
2018-04-22T06:39:52.555Z,100811.37
2018-04-22T06:42:25.068Z,100818.82
2018-04-22T06:44:57.559Z,100806.73
2018-04-22T06:47:30.082Z,100810.95
2018-04-22T06:50:02.635Z,100814.55
2018-04-22T06:52:35.146Z,100814.34
2018-04-22T06:55:07.640Z,100815.84
2018-04-22T06:57:40.176Z,100803.80
2018-04-22T07:00:12.886Z,100801.23
2018-04-22T07:02:45.410Z,100799.06
2018-04-22T07:05:18.206Z,100795.04
2018-04-22T07:07:50.752Z,100800.66
2018-04-22T07:10:23.235Z,100804.17
2018-04-22T07:12:55.744Z,100801.08
2018-04-22T07:15:28.328Z,100804.52
2018-04-22T07:18:00.863Z,100810.06
2018-04-22T07:20:33.454Z,100802.90
2018-04-22T07:23:05.953Z,100812.30
2018-04-22T07:25:38.469Z,100806.37
2018-04-22T07:28:10.979Z,100807.20
2018-04-22T07:30:43.494Z,100804.20
2018-04-22T07:33:16.100Z,100797.23
2018-04-22T07:35:49.498Z,100803.02
2018-04-22T07:38:21.984Z,100804.72
2018-04-22T07:40:54.490Z,100794.08
2018-04-22T07:43:26.984Z,100801.98
2018-04-22T07:45:59.529Z,100809.70
2018-04-22T07:48:32.108Z,100806.95
2018-04-22T07:51:04.699Z,100794.09
2018-04-22T07:53:37.294Z,100793.32
2018-04-22T07:56:09.811Z,100793.53
2018-04-22T07:58:42.299Z,100786.75
2018-04-22T08:01:14.843Z,100778.33
2018-04-22T08:03:47.432Z,100786.55
2018-04-22T08:06:20.915Z,100787.39
2018-04-22T08:08:53.402Z,100782.63
2018-04-22T08:11:25.914Z,100786.68
2018-04-22T08:13:58.420Z,100780.42
2018-04-22T08:16:30.977Z,100785.45
2018-04-22T08:19:03.471Z,100780.23
2018-04-22T08:21:35.985Z,100782.31
2018-04-22T08:24:08.486Z,100777.84
2018-04-22T08:26:41.047Z,100778.91
2018-04-22T08:29:13.599Z,100769.98
2018-04-22T08:31:46.112Z,100766.97
2018-04-22T08:34:19.154Z,100764.66
2018-04-22T08:36:51.723Z,100754.00
2018-04-22T08:39:24.245Z,100758.73
2018-04-22T08:41:56.827Z,100746.03
2018-04-22T08:44:29.407Z,100759.59
2018-04-22T08:47:01.991Z,100750.13
2018-04-22T08:49:34.485Z,100746.27
2018-04-22T08:52:07.055Z,100747.27
2018-04-22T08:54:39.643Z,100735.00
2018-04-22T08:57:12.327Z,100726.28
2018-04-22T08:59:44.814Z,100728.23
2018-04-22T09:02:17.335Z,100730.57
2018-04-22T09:04:50.444Z,100733.36
2018-04-22T09:07:23.067Z,100731.54
2018-04-22T09:09:55.562Z,100727.42
2018-04-22T09:12:28.154Z,100713.56
2018-04-22T09:15:00.652Z,100717.64
2018-04-22T09:17:33.228Z,100715.98
2018-04-22T09:20:05.715Z,100710.66
2018-04-22T09:22:38.235Z,100709.58
2018-04-22T09:25:10.729Z,100700.71
2018-04-22T09:27:43.259Z,100699.11
2018-04-22T09:30:15.752Z,100697.36
2018-04-22T09:32:48.337Z,100685.70
2018-04-22T09:35:20.828Z,100682.95
2018-04-22T09:37:53.344Z,100682.11
2018-04-22T09:40:25.842Z,100679.70
2018-04-22T09:42:58.362Z,100672.48
2018-04-22T09:45:30.947Z,100671.81
2018-04-22T09:48:03.471Z,100680.67
2018-04-22T09:50:36.072Z,100675.00
2018-04-22T09:53:08.596Z,100669.05
2018-04-22T09:55:41.103Z,100666.30
2018-04-22T09:58:13.618Z,100670.34
2018-04-22T10:00:46.918Z,100668.50
2018-04-22T10:03:19.443Z,100659.83
2018-04-22T10:05:51.934Z,100647.39
2018-04-22T10:08:24.531Z,100645.76
2018-04-22T10:10:57.070Z,100639.94
2018-04-22T10:13:29.592Z,100633.98
2018-04-22T10:16:02.080Z,100624.76
2018-04-22T10:18:34.596Z,100631.70
2018-04-22T10:21:07.090Z,100620.70
2018-04-22T10:23:39.640Z,100624.33
2018-04-22T10:26:12.132Z,100623.28
2018-04-22T10:28:44.651Z,100623.59
2018-04-22T10:31:17.183Z,100617.53
2018-04-22T10:33:50.556Z,100616.70
2018-04-22T10:36:23.072Z,100606.48
2018-04-22T10:38:55.599Z,100597.00
2018-04-22T10:41:28.094Z,100594.08
2018-04-22T10:44:00.602Z,100590.05
2018-04-22T10:46:33.202Z,100589.37
2018-04-22T10:49:05.756Z,100594.47
2018-04-22T10:51:38.380Z,100597.07
2018-04-22T10:54:10.872Z,100598.08
2018-04-22T10:56:43.392Z,100582.38
2018-04-22T10:59:15.924Z,100586.98
2018-04-22T11:01:48.927Z,100586.34
2018-04-22T11:04:21.419Z,100578.81
2018-04-22T11:06:53.983Z,100575.83
2018-04-22T11:09:26.481Z,100575.27
2018-04-22T11:11:58.995Z,100585.95
2018-04-22T11:14:31.536Z,100569.31
2018-04-22T11:17:04.373Z,100575.81
2018-04-22T11:19:36.912Z,100565.21
2018-04-22T11:22:09.492Z,100559.51
2018-04-22T11:24:41.947Z,100548.68
2018-04-22T11:27:14.567Z,100550.20
2018-04-22T11:29:47.069Z,100553.95
2018-04-22T11:32:20.378Z,100545.13
2018-04-22T11:34:52.904Z,100533.48
2018-04-22T11:37:25.428Z,100527.22
2018-04-22T11:39:57.918Z,100520.96
2018-04-22T11:42:30.425Z,100520.61
2018-04-22T11:45:02.976Z,100516.23
2018-04-22T11:47:35.497Z,100513.88
2018-04-22T11:50:07.987Z,100501.87
2018-04-22T11:52:40.589Z,100499.41
2018-04-22T11:55:13.074Z,100492.59
2018-04-22T11:57:45.594Z,100495.19
2018-04-22T12:00:18.153Z,100479.85
2018-04-22T12:02:50.759Z,100472.67
2018-04-22T12:05:23.350Z,100476.34
2018-04-22T12:07:55.934Z,100473.10
2018-04-22T12:10:28.518Z,100470.53
2018-04-22T12:13:01.024Z,100470.34
2018-04-22T12:15:33.512Z,100460.72
2018-04-22T12:18:06.064Z,100461.58
2018-04-22T12:20:38.593Z,100460.09
2018-04-22T12:23:11.135Z,100463.83
2018-04-22T12:25:43.623Z,100449.09
2018-04-22T12:28:16.142Z,100446.06
2018-04-22T12:30:49.497Z,100444.63
2018-04-22T12:33:22.015Z,100433.16
2018-04-22T12:35:54.580Z,100428.91
2018-04-22T12:38:27.173Z,100427.41
2018-04-22T12:40:59.687Z,100421.42
2018-04-22T12:43:32.207Z,100421.39
2018-04-22T12:46:04.702Z,100423.30
2018-04-22T12:48:37.216Z,100419.11
2018-04-22T12:51:09.741Z,100413.41
2018-04-22T12:53:42.274Z,100417.69
2018-04-22T12:56:14.859Z,100408.48
2018-04-22T12:58:48.269Z,100407.27
2018-04-22T13:01:20.763Z,100399.13
2018-04-22T13:03:53.283Z,100395.76
2018-04-22T13:06:25.786Z,100396.03
2018-04-22T13:08:58.300Z,100389.56
2018-04-22T13:11:30.790Z,100383.70
2018-04-22T13:14:03.373Z,100380.76
2018-04-22T13:16:35.964Z,100379.58
2018-04-22T13:19:08.473Z,100375.59
2018-04-22T13:21:40.973Z,100365.08
2018-04-22T13:24:13.487Z,100369.08
2018-04-22T13:26:45.983Z,100364.28
2018-04-22T13:29:19.104Z,100357.55
2018-04-22T13:31:51.599Z,100351.75
2018-04-22T13:34:24.151Z,100360.00
2018-04-22T13:36:56.735Z,100350.30
2018-04-22T13:39:29.247Z,100345.95
2018-04-22T13:42:01.807Z,100341.16
2018-04-22T13:44:34.317Z,100339.25
2018-04-22T13:47:06.807Z,100331.09
2018-04-22T13:49:39.323Z,100326.30
2018-04-22T13:52:11.840Z,100312.80
2018-04-22T13:54:44.359Z,100310.59
2018-04-22T13:57:16.908Z,100302.64
2018-04-22T13:59:49.423Z,100306.10
2018-04-22T14:02:21.972Z,100303.64
2018-04-22T14:04:54.555Z,100291.95
2018-04-22T14:07:27.046Z,100289.41
2018-04-22T14:09:59.568Z,100290.30
2018-04-22T14:12:32.060Z,100287.20
2018-04-22T14:15:04.600Z,100276.80
2018-04-22T14:17:37.097Z,100270.23
2018-04-22T14:20:09.605Z,100258.22
2018-04-22T14:22:42.148Z,100262.77
2018-04-22T14:25:14.778Z,100255.37
2018-04-22T14:27:47.230Z,100247.83
2018-04-22T14:30:19.772Z,100246.23
2018-04-22T14:32:52.263Z,100245.27
2018-04-22T14:35:24.786Z,100249.70
2018-04-22T14:37:57.279Z,100235.16
2018-04-22T14:40:29.804Z,100231.80
2018-04-22T14:43:02.329Z,100228.64
2018-04-22T14:45:47.160Z,100226.45
2018-04-22T14:48:20.538Z,100216.63
2018-04-22T14:50:53.035Z,100214.13
2018-04-22T14:53:25.552Z,100221.20
2018-04-22T14:55:58.063Z,100217.39
2018-04-22T14:58:30.572Z,100214.97
2018-04-22T15:01:03.072Z,100216.41
2018-04-22T15:03:35.588Z,100215.39
2018-04-22T15:06:08.087Z,100218.73
2018-04-22T15:08:40.683Z,100205.41
2018-04-22T15:11:13.542Z,100202.41
2018-04-22T15:13:46.062Z,100199.91
2018-04-22T15:16:19.242Z,100197.73
2018-04-22T15:18:51.854Z,100187.83
2018-04-22T15:21:24.342Z,100195.31
2018-04-22T15:23:56.859Z,100191.16
2018-04-22T15:26:29.347Z,100186.88
2018-04-22T15:29:01.906Z,100191.51
2018-04-22T15:31:34.394Z,100190.63
2018-04-22T15:34:06.912Z,100186.50
2018-04-22T15:36:39.403Z,100190.84
2018-04-22T15:39:11.933Z,100184.58
2018-04-22T15:41:44.439Z,100179.42
2018-04-22T15:44:16.950Z,100173.54
2018-04-22T15:46:50.206Z,100170.59
2018-04-22T15:49:22.728Z,100157.20
2018-04-22T15:51:55.274Z,100155.36
2018-04-22T15:54:27.788Z,100143.69
2018-04-22T15:57:00.347Z,100147.33
2018-04-22T15:59:32.856Z,100144.64
2018-04-22T16:02:05.352Z,100143.75
2018-04-22T16:04:37.896Z,100140.05
2018-04-22T16:07:10.386Z,100141.33
2018-04-22T16:09:42.899Z,100140.34
2018-04-22T16:12:15.461Z,100139.98
2018-04-22T16:14:48.597Z,100138.14
2018-04-22T16:17:21.082Z,100137.72
2018-04-22T16:19:53.623Z,100136.05
2018-04-22T16:22:26.105Z,100138.09
2018-04-22T16:24:58.688Z,100138.08
2018-04-22T16:27:31.288Z,100135.92
2018-04-22T16:30:03.858Z,100131.38
2018-04-22T16:32:36.354Z,100130.19
2018-04-22T16:35:08.889Z,100119.34
2018-04-22T16:37:41.472Z,100112.63
2018-04-22T16:40:13.996Z,100114.77
2018-04-22T16:42:46.494Z,100108.38
2018-04-22T16:45:19.380Z,100105.84
2018-04-22T16:47:51.872Z,100105.34
2018-04-22T16:50:24.392Z,100104.36
2018-04-22T16:52:56.891Z,100099.35
2018-04-22T16:55:29.464Z,100095.17
2018-04-22T16:58:01.996Z,100094.58
2018-04-22T17:00:34.513Z,100083.21
2018-04-22T17:03:06.998Z,100082.84
2018-04-22T17:05:39.551Z,100077.39
2018-04-22T17:08:12.013Z,100074.71
2018-04-22T17:10:44.523Z,100074.06
2018-04-22T17:13:17.022Z,100071.94
2018-04-22T17:15:49.755Z,100063.03
2018-04-22T17:18:22.243Z,100062.11
2018-04-22T17:20:54.851Z,100055.76
2018-04-22T17:23:27.340Z,100056.55
2018-04-22T17:25:59.859Z,100056.34
2018-04-22T17:28:32.399Z,100053.03
2018-04-22T17:31:04.908Z,100049.94
2018-04-22T17:33:37.410Z,100045.91
2018-04-22T17:36:10.270Z,100044.09
2018-04-22T17:38:42.843Z,100043.19
2018-04-22T17:41:15.430Z,100048.50
2018-04-22T17:43:48.604Z,100053.91
2018-04-22T17:46:21.122Z,100055.28
2018-04-22T17:48:53.705Z,100061.13
2018-04-22T17:51:26.220Z,100067.78
2018-04-22T17:53:58.711Z,100071.52
2018-04-22T17:56:31.262Z,100069.37
2018-04-22T17:59:03.746Z,100075.59
2018-04-22T18:01:36.274Z,100077.05
2018-04-22T18:04:08.797Z,100081.97
2018-04-22T18:06:41.336Z,100091.44
2018-04-22T18:09:13.828Z,100090.78
2018-04-22T18:11:46.356Z,100088.63
2018-04-22T18:14:19.841Z,100093.09
2018-04-22T18:16:52.369Z,100108.10
2018-04-22T18:19:24.860Z,100108.76
2018-04-22T18:21:57.424Z,100106.23
2018-04-22T18:24:30.011Z,100101.10
2018-04-22T18:27:02.591Z,100107.28
2018-04-22T18:29:35.087Z,100104.84
2018-04-22T18:32:07.604Z,100097.15
2018-04-22T18:34:40.120Z,100099.34
2018-04-22T18:37:12.615Z,100093.28
2018-04-22T18:39:45.142Z,100095.07
2018-04-22T18:42:17.639Z,100099.80
2018-04-22T18:44:50.874Z,100092.78
2018-04-22T18:47:23.366Z,100087.09
2018-04-22T18:49:55.980Z,100076.81
2018-04-22T18:52:28.568Z,100080.85
2018-04-22T18:55:01.078Z,100079.89
2018-04-22T18:57:33.573Z,100076.61
2018-04-22T19:00:06.082Z,100078.63
2018-04-22T19:02:38.602Z,100089.25
2018-04-22T19:05:11.129Z,100090.72
2018-04-22T19:07:43.636Z,100104.70
2018-04-22T19:10:16.251Z,100098.97
2018-04-22T19:12:49.519Z,100087.67
2018-04-22T19:15:22.152Z,100095.23
2018-04-22T19:17:54.741Z,100084.59
2018-04-22T19:20:27.268Z,100071.48
2018-04-22T19:22:59.824Z,100068.02
2018-04-22T19:25:32.334Z,100070.59
2018-04-22T19:28:04.869Z,100071.95
2018-04-22T19:30:37.452Z,100075.43
2018-04-22T19:33:10.034Z,100067.77
2018-04-22T19:35:42.635Z,100063.95
2018-04-22T19:38:15.205Z,100076.02
2018-04-22T19:40:47.735Z,100072.61
2018-04-22T19:43:21.303Z,100077.52
2018-04-22T19:45:53.824Z,100090.47
2018-04-22T19:48:26.471Z,100094.90
2018-04-22T19:50:59.000Z,100098.34
2018-04-22T19:53:31.499Z,100085.57
2018-04-22T19:56:04.022Z,100089.94
2018-04-22T19:58:36.519Z,100096.05
2018-04-22T20:01:09.086Z,100087.02
2018-04-22T20:03:41.578Z,100092.72
2018-04-22T20:06:14.090Z,100095.77
2018-04-22T20:08:46.739Z,100106.89
2018-04-22T20:11:19.250Z,100101.95
2018-04-22T20:13:51.755Z,100102.86
2018-04-22T20:16:24.313Z,100098.49
2018-04-22T20:18:56.807Z,100098.65
2018-04-22T20:21:29.318Z,100100.52
2018-04-22T20:24:01.903Z,100097.59
2018-04-22T20:26:34.535Z,100093.29
2018-04-22T20:29:07.122Z,100104.15
2018-04-22T20:31:39.656Z,100086.62
2018-04-22T20:34:12.204Z,100078.88
2018-04-22T20:36:44.726Z,100073.81
2018-04-22T20:39:17.216Z,100067.59
2018-04-22T20:41:50.572Z,100074.20
2018-04-22T20:44:23.067Z,100068.38
2018-04-22T20:46:55.640Z,100066.98
2018-04-22T20:49:28.243Z,100086.12
2018-04-22T20:52:00.821Z,100086.56
2018-04-22T20:54:33.358Z,100082.39
2018-04-22T20:57:05.884Z,100079.46
2018-04-22T20:59:38.468Z,100082.12
2018-04-22T21:02:11.061Z,100078.59
2018-04-22T21:04:43.554Z,100074.55
2018-04-22T21:07:16.115Z,100083.23
2018-04-22T21:09:49.274Z,100088.80
2018-04-22T21:12:21.789Z,100102.79
2018-04-22T21:14:54.284Z,100148.79
2018-04-22T21:17:26.789Z,100218.20
2018-04-22T21:19:59.360Z,100188.91
2018-04-22T21:22:31.879Z,100171.27
2018-04-22T21:25:04.427Z,100191.50
2018-04-22T21:27:36.931Z,100199.48
2018-04-22T21:30:09.506Z,100200.17
2018-04-22T21:32:42.099Z,100201.59
2018-04-22T21:35:14.598Z,100193.84
2018-04-22T21:37:47.106Z,100197.78
2018-04-22T21:40:20.368Z,100190.97
2018-04-22T21:42:52.882Z,100195.20
2018-04-22T21:45:27.493Z,100176.00
2018-04-22T21:48:00.003Z,100171.48
2018-04-22T21:50:32.553Z,100163.28
2018-04-22T21:53:05.070Z,100155.16
2018-04-22T21:55:37.635Z,100139.98
2018-04-22T21:58:10.142Z,100135.55
2018-04-22T22:00:42.657Z,100126.22
2018-04-22T22:03:15.148Z,100122.30
2018-04-22T22:05:47.659Z,100099.78
2018-04-22T22:08:20.855Z,100087.05
2018-04-22T22:10:53.442Z,100100.86
2018-04-22T22:13:26.027Z,100091.74
2018-04-22T22:15:58.546Z,100103.58
2018-04-22T22:18:31.097Z,100117.66
2018-04-22T22:21:03.616Z,100114.06
2018-04-22T22:23:36.170Z,100106.49
2018-04-22T22:26:08.754Z,100092.97
2018-04-22T22:28:41.250Z,100087.30
2018-04-22T22:31:13.822Z,100092.98
2018-04-22T22:33:46.306Z,100105.58
2018-04-22T22:36:19.372Z,100114.02
2018-04-22T22:38:51.919Z,100110.73
2018-04-22T22:41:24.497Z,100114.06
2018-04-22T22:43:57.072Z,100118.20
2018-04-22T22:46:29.588Z,100123.08
2018-04-22T22:49:02.140Z,100125.27
2018-04-22T22:51:34.716Z,100126.61
2018-04-22T22:54:07.212Z,100125.14
2018-04-22T22:56:39.727Z,100133.13
2018-04-22T22:59:12.223Z,100135.08
2018-04-22T23:01:44.745Z,100130.97
2018-04-22T23:04:17.235Z,100129.86
2018-04-22T23:06:50.542Z,100125.03
2018-04-22T23:09:23.039Z,100135.11
2018-04-22T23:11:55.549Z,100132.82
2018-04-22T23:14:28.091Z,100132.95
2018-04-22T23:17:00.626Z,100123.93
2018-04-22T23:19:33.099Z,100123.36
2018-04-22T23:22:05.659Z,100124.23
2018-04-22T23:24:38.152Z,100131.12
2018-04-22T23:27:10.666Z,100117.52
2018-04-22T23:29:43.154Z,100115.65
2018-04-22T23:32:15.663Z,100117.88
2018-04-22T23:34:48.435Z,100117.30
2018-04-22T23:37:20.951Z,100115.92
2018-04-22T23:39:53.543Z,100109.88
2018-04-22T23:42:26.136Z,100114.38
2018-04-22T23:44:58.627Z,100111.83
2018-04-22T23:47:31.195Z,100106.75
2018-04-22T23:50:03.680Z,100096.31
2018-04-22T23:52:36.273Z,100096.52
2018-04-22T23:55:08.768Z,100099.70
2018-04-22T23:57:41.280Z,100094.25
